PWSweather.com
Personal Weather Stations
Station Observations
WHAKATANE1
Whakatane, WhakataneNZ

WhakataneWhakataneNZ

Lat: -37.960954, Lon: 176.9768

Elevation: 10

Station Type: Lacrosse

Latest ConditionsUpdated 3:25:01 AM GMT+12:12 Tuesday, Apr 28, 2015
Currently Today's Max Today's Min Today's Average
Temperature 60.1°F15.6°C 63.5°F17.5°C 60.1°F15.6°C 62.9°F17.2°C
Dew Point 59.8°F15.4°C 63.2°F17.3°C 59.8°F15.4°C 62.6°F17.0°C
Winds 3.7 mph E6.0 kmh E 11.1 mph ESE17.9 kmh ESE - 8.7 mph 14.0 kmh
Wind Gusts 5.4 mph8.7 kmh 17.4 mph28.0 kmh - -
Humidity 99% 99% 99% 99%
Pressure 30.64 in1037.6 mb 30.64 in1037.6 mb 30.64 in1037.6 mb -
Precipitation - 0.02 in0.5 mm - -
Hour Temp Dew Point Humidity Winds Wind Gusts Pressure Precip Precip Rate Daily Precip Total
03:25 AM 60.1°F15.6°C 59.8°F15.4°C 99% 3.7 mph E6.0 kmh E 5.4 mph8.7 kmh 30.64 in1037.6 mb 0.01 in0.3 mm 0.00 in0.0 mm 0.02 in0.5 mm
03:20 AM 60.1°F15.6°C 59.8°F15.4°C 99% 3.6 mph E5.8 kmh E 6.0 mph9.7 kmh 30.64 in1037.6 mb 0.02 in0.5 mm 0.00 in0.0 mm 0.02 in0.5 mm
03:15 AM 60.3°F15.7°C 60.0°F15.6°C 99% 4.3 mph E6.9 kmh E 6.9 mph11.1 kmh 30.64 in1037.6 mb 0.02 in0.5 mm 0.00 in0.0 mm 0.02 in0.5 mm
03:10 AM 60.8°F16.0°C 60.5°F15.8°C 99% 6.7 mph ENE10.8 kmh ENE 11.4 mph18.3 kmh 30.64 in1037.6 mb 0.02 in0.5 mm 0.00 in0.0 mm 0.02 in0.5 mm
03:05 AM 61.2°F16.2°C 60.9°F16.1°C 99% 7.0 mph ENE11.3 kmh ENE 11.4 mph18.3 kmh 30.64 in1037.6 mb 0.02 in0.5 mm 0.00 in0.0 mm 0.02 in0.5 mm
03:00 AM 61.5°F16.4°C 61.3°F16.3°C 99% 6.0 mph E9.7 kmh E 8.3 mph13.4 kmh 30.64 in1037.6 mb 0.02 in0.5 mm 0.00 in0.0 mm 0.02 in0.5 mm
02:55 AM 62.1°F16.7°C 61.8°F16.6°C 99% 7.2 mph E11.6 kmh E 12.1 mph19.5 kmh 30.64 in1037.6 mb 0.02 in0.5 mm 0.00 in0.0 mm 0.02 in0.5 mm
02:50 AM 62.4°F16.9°C 62.2°F16.8°C 99% 8.7 mph E14.0 kmh E 13.0 mph20.9 kmh 30.64 in1037.6 mb 0.02 in0.5 mm 0.12 in3.0 mm 0.02 in0.5 mm
02:45 AM 62.8°F17.1°C 62.5°F16.9°C 99% 9.0 mph E14.5 kmh E 13.0 mph20.9 kmh 30.64 in1037.6 mb 0.01 in0.3 mm 0.00 in0.0 mm 0.01 in0.3 mm
02:40 AM 63.0°F17.2°C 62.7°F17.1°C 99% 9.4 mph SE15.1 kmh SE 15.2 mph24.5 kmh 30.64 in1037.6 mb 0.01 in0.3 mm 0.00 in0.0 mm 0.01 in0.3 mm
02:35 AM 63.0°F17.2°C 62.7°F17.1°C 99% 10.0 mph SE16.1 kmh SE 15.9 mph25.6 kmh 30.64 in1037.6 mb 0.01 in0.3 mm 0.00 in0.0 mm 0.01 in0.3 mm
02:30 AM 63.3°F17.4°C 63.1°F17.3°C 99% 9.0 mph ESE14.5 kmh ESE 15.9 mph25.6 kmh 30.64 in1037.6 mb 0.01 in0.3 mm 0.00 in0.0 mm 0.01 in0.3 mm
02:25 AM 63.3°F17.4°C 63.1°F17.3°C 99% 8.7 mph E14.0 kmh E 15.9 mph25.6 kmh 30.64 in1037.6 mb 0.01 in0.3 mm 0.12 in3.0 mm 0.01 in0.3 mm
02:20 AM 63.3°F17.4°C 63.1°F17.3°C 99% 8.4 mph E13.5 kmh E 11.4 mph18.3 kmh 30.64 in1037.6 mb 0.00 in0.0 mm 0.00 in0.0 mm 0.00 in0.0 mm
02:15 AM 63.3°F17.4°C 63.1°F17.3°C 99% 9.9 mph SE15.9 kmh SE 14.5 mph23.3 kmh 30.64 in1037.6 mb 0.00 in0.0 mm 0.00 in0.0 mm 0.00 in0.0 mm
02:10 AM 63.3°F17.4°C 63.1°F17.3°C 99% 10.1 mph SE16.3 kmh SE 14.5 mph23.3 kmh 30.64 in1037.6 mb 0.00 in0.0 mm 0.00 in0.0 mm 0.00 in0.0 mm
02:05 AM 63.3°F17.4°C 63.1°F17.3°C 99% 8.8 mph E14.2 kmh E 12.1 mph19.5 kmh 30.64 in1037.6 mb 0.00 in0.0 mm 0.00 in0.0 mm 0.00 in0.0 mm
01:55 AM 63.3°F17.4°C 63.1°F17.3°C 99% 8.5 mph E13.7 kmh E 13.0 mph20.9 kmh 30.64 in1037.6 mb 0.00 in0.0 mm 0.00 in0.0 mm 0.00 in0.0 mm
01:50 AM 63.1°F17.3°C 62.9°F17.2°C 99% 8.5 mph ESE13.7 kmh ESE 11.4 mph18.3 kmh 30.64 in1037.6 mb 0.00 in0.0 mm 0.00 in0.0 mm 0.00 in0.0 mm
01:45 AM 63.1°F17.3°C 62.9°F17.2°C 99% 8.4 mph SSE13.5 kmh SSE 11.4 mph18.3 kmh 30.64 in1037.6 mb 0.00 in0.0 mm 0.00 in0.0 mm 0.00 in0.0 mm
01:40 AM 63.1°F17.3°C 62.9°F17.2°C 99% 7.8 mph SE12.6 kmh SE 11.4 mph18.3 kmh 30.64 in1037.6 mb 0.00 in0.0 mm 0.00 in0.0 mm 0.00 in0.0 mm
01:35 AM 63.1°F17.3°C 62.9°F17.2°C 99% 8.6 mph ESE13.8 kmh ESE 13.0 mph20.9 kmh 30.64 in1037.6 mb 0.00 in0.0 mm 0.00 in0.0 mm 0.00 in0.0 mm
01:30 AM 63.1°F17.3°C 62.9°F17.2°C 99% 9.3 mph SE15.0 kmh SE 13.0 mph20.9 kmh 30.64 in1037.6 mb 0.00 in0.0 mm 0.00 in0.0 mm 0.00 in0.0 mm
01:25 AM 63.1°F17.3°C 62.9°F17.2°C 99% 9.1 mph SE14.6 kmh SE 13.6 mph21.9 kmh 30.64 in1037.6 mb 0.00 in0.0 mm 0.00 in0.0 mm 0.00 in0.0 mm
01:20 AM 63.3°F17.4°C 63.1°F17.3°C 99% 9.5 mph SE15.3 kmh SE 13.6 mph21.9 kmh 30.64 in1037.6 mb 0.00 in0.0 mm 0.00 in0.0 mm 0.00 in0.0 mm
01:15 AM 63.3°F17.4°C 63.1°F17.3°C 99% 9.6 mph ESE15.4 kmh ESE 13.6 mph21.9 kmh 30.64 in1037.6 mb 0.00 in0.0 mm 0.00 in0.0 mm 0.00 in0.0 mm
01:10 AM 63.3°F17.4°C 63.1°F17.3°C 99% 8.2 mph SE13.2 kmh SE 13.6 mph21.9 kmh 30.64 in1037.6 mb 0.00 in0.0 mm 0.00 in0.0 mm 0.00 in0.0 mm
01:05 AM 63.3°F17.4°C 63.1°F17.3°C 99% 8.5 mph SE13.7 kmh SE 11.4 mph18.3 kmh 30.64 in1037.6 mb 0.00 in0.0 mm 0.00 in0.0 mm 0.00 in0.0 mm
01:00 AM 63.3°F17.4°C 63.1°F17.3°C 99% 9.9 mph SE15.9 kmh SE 11.4 mph18.3 kmh 30.64 in1037.6 mb 0.00 in0.0 mm 0.00 in0.0 mm 0.00 in0.0 mm
12:55 AM 63.3°F17.4°C 63.1°F17.3°C 99% 10.0 mph SE16.1 kmh SE 15.2 mph24.5 kmh 30.64 in1037.6 mb 0.00 in0.0 mm 0.00 in0.0 mm 0.00 in0.0 mm
12:50 AM 63.3°F17.4°C 63.1°F17.3°C 99% 9.3 mph SSE15.0 kmh SSE 15.2 mph24.5 kmh 30.64 in1037.6 mb 0.00 in0.0 mm 0.00 in0.0 mm 0.00 in0.0 mm
12:45 AM 63.5°F17.5°C 63.2°F17.3°C 99% 9.4 mph SE15.1 kmh SE 13.0 mph20.9 kmh 30.64 in1037.6 mb 0.00 in0.0 mm 0.00 in0.0 mm 0.00 in0.0 mm
12:40 AM 63.5°F17.5°C 63.2°F17.3°C 99% 9.8 mph ESE15.8 kmh ESE 13.0 mph20.9 kmh 30.64 in1037.6 mb 0.00 in0.0 mm 0.00 in0.0 mm 0.00 in0.0 mm
12:35 AM 63.5°F17.5°C 63.2°F17.3°C 99% 9.9 mph ESE15.9 kmh ESE 12.1 mph19.5 kmh 30.64 in1037.6 mb 0.00 in0.0 mm 0.00 in0.0 mm 0.00 in0.0 mm
12:30 AM 63.5°F17.5°C 63.2°F17.3°C 99% 10.7 mph ESE17.2 kmh ESE 17.4 mph28.0 kmh 30.64 in1037.6 mb 0.00 in0.0 mm 0.00 in0.0 mm 0.00 in0.0 mm
12:25 AM 63.5°F17.5°C 63.2°F17.3°C 99% 10.5 mph SE16.9 kmh SE 17.4 mph28.0 kmh 30.64 in1037.6 mb 0.00 in0.0 mm 0.00 in0.0 mm 0.00 in0.0 mm
12:20 AM 63.5°F17.5°C 63.2°F17.3°C 99% 9.3 mph SE15.0 kmh SE 17.4 mph28.0 kmh 30.64 in1037.6 mb 0.00 in0.0 mm 0.00 in0.0 mm 0.00 in0.0 mm
12:15 AM 63.5°F17.5°C 63.2°F17.3°C 99% 9.8 mph E15.8 kmh E 15.2 mph24.5 kmh 30.64 in1037.6 mb 0.00 in0.0 mm 0.00 in0.0 mm 0.00 in0.0 mm
12:10 AM 63.5°F17.5°C 63.2°F17.3°C 99% 11.1 mph ESE17.9 kmh ESE 15.2 mph24.5 kmh 30.64 in1037.6 mb 0.00 in0.0 mm 0.00 in0.0 mm 0.00 in0.0 mm
12:05 AM 63.5°F17.5°C 63.2°F17.3°C 99% 10.9 mph SE17.5 kmh SE 13.0 mph20.9 kmh 30.64 in1037.6 mb 0.00 in0.0 mm 0.00 in0.0 mm 0.00 in0.0 mm
12:00 AM 63.5°F17.5°C 63.2°F17.3°C 99% 10.2 mph SE16.4 kmh SE 13.0 mph20.9 kmh 30.64 in1037.6 mb 0.00 in0.0 mm 0.00 in0.0 mm 0.00 in0.0 mm